Time;durP1;ratioP1;P1;durP2;ratioP2;P2;SDS_P1;SDS_P2;PMS_P1;PMS_P2;Temp;Humidity;BMP_temperature;BMP_pressure;BME280_temperature;BME280_humidity;BME280_pressure;Samples;Min_cycle;Max_cycle;Signal;HPM_P1;HPM_P2
2022/02/17 00:01:08;;;;;;;0.13;0.13;;;;;;;;;;4132560;28;20404;-60
2022/02/17 00:03:10;;;;;;;0.35;0.10;;;;;;;;;;4131867;28;20185;-61
2022/02/17 00:05:11;;;;;;;0.22;0.15;;;;;;;;;;4131172;28;20050;-61
2022/02/17 00:07:12;;;;;;;0.40;0.13;;;;;;;;;;4132309;28;20065;-61
2022/02/17 00:09:13;;;;;;;0.80;0.25;;;;;;;;;;4132482;28;20112;-60
2022/02/17 00:11:15;;;;;;;0.13;0.10;;;;;;;;;;4132411;28;20109;-60
2022/02/17 00:13:16;;;;;;;0.30;0.13;;;;;;;;;;4132099;28;20499;-61
2022/02/17 00:15:17;;;;;;;0.20;0.10;;;;;;;;;;4130752;28;20148;-61
2022/02/17 00:17:19;;;;;;;0.10;0.10;;;;;;;;;;4131569;28;20063;-60
2022/02/17 00:19:20;;;;;;;0.20;0.10;;;;;;;;;;4132038;28;20395;-61
2022/02/17 00:21:21;;;;;;;0.20;0.10;;;;;;;;;;4131995;28;20396;-59
2022/02/17 00:23:24;;;;;;;0.65;0.32;;;;;;;;;;4132292;28;20058;-61
2022/02/17 00:25:25;;;;;;;0.30;0.10;;;;;;;;;;4131917;28;20418;-61
2022/02/17 00:27:26;;;;;;;0.00;0.00;;;;;;;;;;4132005;28;20112;-61
2022/02/17 00:29:28;;;;;;;0.30;0.20;;;;;;;;;;4132217;28;20062;-60
2022/02/17 00:31:31;;;;;;;0.20;0.15;;;;;;;;;;4131983;28;20101;-60
2022/02/17 00:33:32;;;;;;;0.10;0.10;;;;;;;;;;4131914;28;20431;-61
2022/02/17 00:35:34;;;;;;;0.30;0.20;;;;;;;;;;4130116;28;20058;-62
2022/02/17 00:37:35;;;;;;;0.45;0.10;;;;;;;;;;4131945;28;20065;-61
2022/02/17 00:39:37;;;;;;;0.43;0.20;;;;;;;;;;4132038;28;20391;-61
2022/02/17 00:41:38;;;;;;;0.32;0.10;;;;;;;;;;4130411;28;20093;-61
2022/02/17 00:43:39;;;;;;;0.20;0.10;;;;;;;;;;4131758;28;20494;-61
2022/02/17 00:45:40;;;;;;;0.20;0.20;;;;;;;;;;4131718;28;20391;-61
2022/02/17 00:47:41;;;;;;;0.20;0.20;;;;;;;;;;4113845;28;20050;-61
2022/02/17 00:49:44;;;;;;;0.80;0.25;;;;;;;;;;4114299;28;20486;-60
2022/02/17 00:51:46;;;;;;;0.63;0.15;;;;;;;;;;4131394;28;20514;-61
2022/02/17 00:53:50;;;;;;;0.40;0.10;;;;;;;;;;4114432;28;20055;-61
2022/02/17 00:55:51;;;;;;;0.20;0.10;;;;;;;;;;4131347;28;20497;-61
2022/02/17 00:57:54;;;;;;;0.20;0.10;;;;;;;;;;4130523;28;20054;-61
2022/02/17 00:59:57;;;;;;;0.10;0.10;;;;;;;;;;4130374;28;20050;-61
2022/02/17 01:01:58;;;;;;;0.15;0.10;;;;;;;;;;4131211;28;20062;-61
2022/02/17 01:03:59;;;;;;;0.20;0.17;;;;;;;;;;4130097;28;20584;-61
2022/02/17 01:06:01;;;;;;;0.15;0.08;;;;;;;;;;4131720;28;20062;-61
2022/02/17 01:08:02;;;;;;;0.10;0.03;;;;;;;;;;4113990;28;20495;-61
2022/02/17 01:10:03;;;;;;;0.55;0.10;;;;;;;;;;4131242;28;20065;-62
2022/02/17 01:12:04;;;;;;;0.13;0.13;;;;;;;;;;4131121;28;20054;-61
2022/02/17 01:14:07;;;;;;;0.20;0.10;;;;;;;;;;4131285;28;20490;-61
2022/02/17 01:16:08;;;;;;;0.20;0.10;;;;;;;;;;4131118;28;20121;-61
2022/02/17 01:18:09;;;;;;;0.30;0.20;;;;;;;;;;4130764;28;20062;-61
2022/02/17 01:20:14;;;;;;;0.35;0.10;;;;;;;;;;4130148;28;20058;-60
2022/02/17 01:22:17;;;;;;;0.13;0.00;;;;;;;;;;4113791;28;20054;-61
2022/02/17 01:24:18;;;;;;;0.20;0.10;;;;;;;;;;4131014;28;20446;-61
2022/02/17 01:26:21;;;;;;;0.45;0.20;;;;;;;;;;4098197;28;20093;-61
2022/02/17 01:28:29;;;;;;;0.57;0.20;;;;;;;;;;4113996;28;20106;-61
2022/02/17 01:30:31;;;;;;;0.35;0.10;;;;;;;;;;4113662;28;20588;-60
2022/02/17 01:32:33;;;;;;;0.13;0.10;;;;;;;;;;4129339;28;20121;-60
2022/02/17 01:34:34;;;;;;;0.20;0.08;;;;;;;;;;4131091;28;20109;-60
2022/02/17 01:36:38;;;;;;;0.10;0.00;;;;;;;;;;4116581;28;20062;-61
2022/02/17 01:38:41;;;;;;;0.10;0.10;;;;;;;;;;4146159;28;20076;-61
2022/02/17 01:40:42;;;;;;;0.13;0.10;;;;;;;;;;4129901;28;20112;-61
2022/02/17 01:42:44;;;;;;;0.10;0.10;;;;;;;;;;4130823;28;20387;-61
2022/02/17 01:44:46;;;;;;;0.10;0.00;;;;;;;;;;4130905;28;20054;-61
2022/02/17 01:46:47;;;;;;;0.38;0.20;;;;;;;;;;4145356;28;20057;-61
2022/02/17 01:48:48;;;;;;;0.30;0.20;;;;;;;;;;4145857;28;20057;-61
2022/02/17 01:50:50;;;;;;;0.10;0.10;;;;;;;;;;4129495;28;20062;-61
2022/02/17 01:52:51;;;;;;;0.10;0.05;;;;;;;;;;4129384;28;20388;-60
2022/02/17 01:54:52;;;;;;;0.80;0.25;;;;;;;;;;4130978;28;20050;-61
2022/02/17 01:56:55;;;;;;;0.03;0.00;;;;;;;;;;4145636;28;20054;-61
2022/02/17 01:58:59;;;;;;;0.10;0.10;;;;;;;;;;4145612;28;20062;-61
2022/02/17 02:01:04;;;;;;;1.00;0.20;;;;;;;;;;4129498;28;20550;-61
2022/02/17 02:03:08;;;;;;;0.10;0.03;;;;;;;;;;4129285;28;20058;-61
2022/02/17 02:05:28;;;;;;;0.10;0.10;;;;;;;;;;4145681;28;20167;-60
2022/02/17 02:07:29;;;;;;;0.10;0.03;;;;;;;;;;4128858;28;20522;-61
2022/02/17 02:09:34;;;;;;;0.28;0.20;;;;;;;;;;4145629;28;20522;-61
2022/02/17 02:11:39;;;;;;;0.10;0.10;;;;;;;;;;4129269;28;20169;-61
2022/02/17 02:13:41;;;;;;;0.50;0.10;;;;;;;;;;4129241;28;20159;-61
2022/02/17 02:15:51;;;;;;;0.00;0.00;;;;;;;;;;4145382;28;20058;-61
2022/02/17 02:17:54;;;;;;;0.00;0.00;;;;;;;;;;4128873;28;20058;-61
2022/02/17 02:19:57;;;;;;;0.00;0.00;;;;;;;;;;4129271;28;20058;-61
2022/02/17 02:22:00;;;;;;;0.00;0.00;;;;;;;;;;4129088;28;20106;-61
2022/02/17 02:24:01;;;;;;;0.63;0.10;;;;;;;;;;4129290;28;20054;-61
2022/02/17 02:26:03;;;;;;;0.28;0.20;;;;;;;;;;4129208;28;20062;-61
2022/02/17 02:28:04;;;;;;;0.52;0.10;;;;;;;;;;4130247;28;20112;-61
2022/02/17 02:30:06;;;;;;;0.60;0.10;;;;;;;;;;4129165;28;20058;-60
2022/02/17 02:32:09;;;;;;;0.45;0.22;;;;;;;;;;4145097;28;20104;-61
2022/02/17 02:34:11;;;;;;;0.30;0.10;;;;;;;;;;4130356;28;20396;-61
2022/02/17 02:36:12;;;;;;;0.32;0.10;;;;;;;;;;4128730;28;20058;-61
2022/02/17 02:38:15;;;;;;;0.10;0.00;;;;;;;;;;4129120;28;20518;-60
2022/02/17 02:40:16;;;;;;;0.10;0.10;;;;;;;;;;4129258;28;20067;-61
2022/02/17 02:42:21;;;;;;;0.17;0.10;;;;;;;;;;4130087;28;20506;-61
2022/02/17 02:44:22;;;;;;;0.05;0.05;;;;;;;;;;4113299;28;20067;-61
2022/02/17 02:46:28;;;;;;;0.17;0.10;;;;;;;;;;4129325;28;20050;-61
2022/02/17 02:48:32;;;;;;;0.10;0.10;;;;;;;;;;4112702;28;20435;-61
2022/02/17 02:50:34;;;;;;;0.30;0.20;;;;;;;;;;4113033;28;20059;-61
2022/02/17 02:52:56;;;;;;;0.00;0.00;;;;;;;;;;4130312;28;20058;-61
2022/02/17 02:54:57;;;;;;;0.30;0.10;;;;;;;;;;4130075;28;20536;-61
2022/02/17 02:56:58;;;;;;;0.30;0.20;;;;;;;;;;4113098;28;20062;-60
2022/02/17 02:59:00;;;;;;;0.10;0.08;;;;;;;;;;4113004;28;20078;-61
2022/02/17 03:01:01;;;;;;;0.40;0.10;;;;;;;;;;4112918;28;20525;-61
2022/02/17 03:03:03;;;;;;;0.10;0.00;;;;;;;;;;4129838;28;20109;-61
2022/02/17 03:05:05;;;;;;;0.10;0.00;;;;;;;;;;4130072;28;20061;-61
2022/02/17 03:07:06;;;;;;;0.22;0.10;;;;;;;;;;4130058;28;20126;-61
2022/02/17 03:09:09;;;;;;;0.52;0.35;;;;;;;;;;4130175;28;20054;-61
2022/02/17 03:11:10;;;;;;;0.10;0.10;;;;;;;;;;4128860;28;20085;-61
2022/02/17 03:13:14;;;;;;;0.17;0.10;;;;;;;;;;4112734;28;20111;-61
2022/02/17 03:15:16;;;;;;;0.10;0.10;;;;;;;;;;4112672;28;20138;-61
2022/02/17 03:17:17;;;;;;;0.10;0.10;;;;;;;;;;4112793;28;20113;-61
2022/02/17 03:19:19;;;;;;;0.00;0.00;;;;;;;;;;4131890;28;20077;-61
2022/02/17 03:21:22;;;;;;;0.25;0.10;;;;;;;;;;4115748;28;20170;-61
2022/02/17 03:23:23;;;;;;;0.10;0.10;;;;;;;;;;4133222;28;20113;-61
2022/02/17 03:25:31;;;;;;;0.25;0.00;;;;;;;;;;4131586;28;20118;-61
2022/02/17 03:27:39;;;;;;;0.08;0.08;;;;;;;;;;4115773;28;20089;-61
2022/02/17 03:30:01;;;;;;;0.00;0.00;;;;;;;;;;4118578;28;20050;-61
2022/02/17 03:32:04;;;;;;;0.20;0.10;;;;;;;;;;4115342;28;20058;-61
2022/02/17 03:34:05;;;;;;;0.10;0.10;;;;;;;;;;4115738;28;20054;-61
2022/02/17 03:36:08;;;;;;;0.08;0.08;;;;;;;;;;4130976;28;20109;-61
2022/02/17 03:38:10;;;;;;;0.38;0.10;;;;;;;;;;4147675;28;20456;-61
2022/02/17 03:40:11;;;;;;;0.20;0.10;;;;;;;;;;4131548;28;20058;-62
2022/02/17 03:42:22;;;;;;;0.00;0.00;;;;;;;;;;4131514;28;20062;-61
2022/02/17 03:44:23;;;;;;;0.30;0.10;;;;;;;;;;4131519;28;20081;-61
2022/02/17 03:46:28;;;;;;;0.20;0.10;;;;;;;;;;4147957;28;20061;-61
2022/02/17 03:48:29;;;;;;;0.10;0.00;;;;;;;;;;4131092;28;20232;-61
2022/02/17 03:50:37;;;;;;;0.22;0.10;;;;;;;;;;4131789;28;20093;-61
2022/02/17 03:52:43;;;;;;;0.35;0.10;;;;;;;;;;4147759;28;20058;-61
2022/02/17 03:55:19;;;;;;;0.32;0.10;;;;;;;;;;4131498;28;20387;-61
2022/02/17 03:57:44;;;;;;;0.00;0.00;;;;;;;;;;4145076;28;20058;-60
2022/02/17 03:59:47;;;;;;;0.00;0.00;;;;;;;;;;4131210;28;20069;-61
2022/02/17 04:01:49;;;;;;;0.00;0.00;;;;;;;;;;4146908;28;20049;-60
2022/02/17 04:03:54;;;;;;;0.00;0.00;;;;;;;;;;4131390;28;20054;-60
2022/02/17 04:05:56;;;;;;;0.10;0.05;;;;;;;;;;4147641;28;20057;-61
2022/02/17 04:07:59;;;;;;;0.00;0.00;;;;;;;;;;4131114;28;20433;-61
2022/02/17 04:10:03;;;;;;;0.00;0.00;;;;;;;;;;4147277;28;20049;-61
2022/02/17 04:12:05;;;;;;;0.30;0.10;;;;;;;;;;4147210;28;20452;-61
2022/02/17 04:14:09;;;;;;;0.15;0.10;;;;;;;;;;4147257;28;20057;-61
2022/02/17 04:16:18;;;;;;;0.08;0.00;;;;;;;;;;4130997;28;20450;-61
2022/02/17 04:18:21;;;;;;;0.00;0.00;;;;;;;;;;4146745;28;20053;-61
2022/02/17 04:20:35;;;;;;;0.00;0.00;;;;;;;;;;4131341;28;20085;-61
2022/02/17 04:22:42;;;;;;;0.22;0.10;;;;;;;;;;4131151;28;20058;-61
2022/02/17 04:24:48;;;;;;;0.08;0.00;;;;;;;;;;4130945;28;20054;-61
2022/02/17 04:26:54;;;;;;;0.10;0.10;;;;;;;;;;4130666;28;20502;-61
2022/02/17 04:29:06;;;;;;;0.10;0.10;;;;;;;;;;4130220;28;20108;-61
2022/02/17 04:31:10;;;;;;;0.10;0.10;;;;;;;;;;4130767;28;20571;-61
2022/02/17 04:33:15;;;;;;;0.00;0.00;;;;;;;;;;4146594;28;20061;-61
2022/02/17 04:35:28;;;;;;;0.20;0.05;;;;;;;;;;4125619;28;20051;-62
2022/02/17 04:37:29;;;;;;;0.30;0.10;;;;;;;;;;4114449;28;20607;-61
2022/02/17 04:39:30;;;;;;;0.10;0.00;;;;;;;;;;4131898;28;20100;-59
2022/02/17 04:43:55;;;;;;;0.10;0.00;;;;;;;;;;4130572;28;20058;-61
2022/02/17 04:45:56;;;;;;;0.00;0.00;;;;;;;;;;4114719;28;20062;-61
2022/02/17 04:47:58;;;;;;;0.10;0.10;;;;;;;;;;4114051;28;20090;-61
2022/02/17 04:49:59;;;;;;;0.10;0.10;;;;;;;;;;4114757;28;20054;-61
2022/02/17 04:52:01;;;;;;;0.03;0.00;;;;;;;;;;4131801;28;20083;-62
2022/02/17 04:54:03;;;;;;;0.20;0.10;;;;;;;;;;4130466;28;20617;-62
2022/02/17 04:56:04;;;;;;;0.10;0.10;;;;;;;;;;4130235;28;20097;-61
2022/02/17 04:58:08;;;;;;;0.08;0.00;;;;;;;;;;4114343;28;20051;-61
2022/02/17 05:00:10;;;;;;;0.00;0.00;;;;;;;;;;4114321;28;20451;-61
2022/02/17 05:02:12;;;;;;;0.00;0.00;;;;;;;;;;4113797;28;20107;-62
2022/02/17 05:04:24;;;;;;;0.00;0.00;;;;;;;;;;4114576;28;20108;-61
2022/02/17 05:06:33;;;;;;;0.10;0.00;;;;;;;;;;4114360;28;20117;-61
2022/02/17 05:08:34;;;;;;;0.00;0.00;;;;;;;;;;4130519;28;20057;-61
2022/02/17 05:10:35;;;;;;;0.08;0.00;;;;;;;;;;4114076;28;20396;-61
2022/02/17 05:12:37;;;;;;;0.10;0.05;;;;;;;;;;4113925;28;20070;-61
2022/02/17 05:14:38;;;;;;;0.00;0.00;;;;;;;;;;4113749;28;20486;-61
2022/02/17 05:16:42;;;;;;;0.10;0.10;;;;;;;;;;4113441;28;20050;-61
2022/02/17 05:18:43;;;;;;;0.03;0.00;;;;;;;;;;4130393;28;20050;-60
2022/02/17 05:20:50;;;;;;;0.00;0.00;;;;;;;;;;4114009;28;20067;-61
2022/02/17 05:23:01;;;;;;;0.00;0.00;;;;;;;;;;4113912;28;20059;-61
2022/02/17 05:25:19;;;;;;;0.00;0.00;;;;;;;;;;4113775;28;20087;-61
2022/02/17 05:27:30;;;;;;;0.00;0.00;;;;;;;;;;4131605;28;20104;-61
2022/02/17 05:29:50;;;;;;;0.28;0.00;;;;;;;;;;4131412;28;20058;-60
2022/02/17 05:32:00;;;;;;;0.10;0.00;;;;;;;;;;4130897;28;20069;-61
2022/02/17 05:34:24;;;;;;;0.00;0.00;;;;;;;;;;4106899;28;20077;-61
2022/02/17 05:36:48;;;;;;;0.10;0.00;;;;;;;;;;4127766;28;20101;-61
2022/02/17 05:39:18;;;;;;;0.00;0.00;;;;;;;;;;4118157;28;20066;-61
2022/02/17 05:41:28;;;;;;;0.00;0.00;;;;;;;;;;4130158;28;20058;-60
2022/02/17 05:43:29;;;;;;;0.10;0.10;;;;;;;;;;4131170;28;20054;-61
2022/02/17 05:45:31;;;;;;;0.20;0.08;;;;;;;;;;4131211;28;20054;-61
2022/02/17 05:47:32;;;;;;;0.00;0.00;;;;;;;;;;4130365;28;20070;-60
2022/02/17 05:49:34;;;;;;;0.10;0.10;;;;;;;;;;4130966;28;20117;-61
2022/02/17 05:51:35;;;;;;;0.13;0.10;;;;;;;;;;4130717;28;20065;-61
2022/02/17 05:53:36;;;;;;;0.00;0.00;;;;;;;;;;4130805;28;20077;-60
2022/02/17 05:55:37;;;;;;;0.00;0.00;;;;;;;;;;4129375;28;20062;-60
2022/02/17 05:57:38;;;;;;;0.20;0.00;;;;;;;;;;4130596;28;20062;-61
2022/02/17 05:59:39;;;;;;;0.00;0.00;;;;;;;;;;4130611;28;20116;-61
2022/02/17 06:01:40;;;;;;;0.20;0.10;;;;;;;;;;4101326;28;20059;-61
2022/02/17 06:03:42;;;;;;;0.00;0.00;;;;;;;;;;4112593;28;20086;-61
2022/02/17 06:05:43;;;;;;;0.10;0.10;;;;;;;;;;4112101;28;20551;-61
2022/02/17 06:07:44;;;;;;;0.30;0.10;;;;;;;;;;4112265;28;20059;-61
2022/02/17 06:09:45;;;;;;;0.10;0.10;;;;;;;;;;4112567;28;20105;-61
2022/02/17 06:11:46;;;;;;;0.10;0.10;;;;;;;;;;4112414;28;20210;-61
2022/02/17 06:13:48;;;;;;;0.08;0.08;;;;;;;;;;4112119;28;20058;-61
2022/02/17 06:15:49;;;;;;;0.20;0.10;;;;;;;;;;4112477;28;20047;-61
2022/02/17 06:17:50;;;;;;;0.28;0.08;;;;;;;;;;4111667;28;20498;-60
2022/02/17 06:19:51;;;;;;;0.30;0.15;;;;;;;;;;4130345;28;20112;-61
2022/02/17 06:21:53;;;;;;;0.25;0.10;;;;;;;;;;4136241;28;20057;-61
2022/02/17 06:23:56;;;;;;;0.15;0.10;;;;;;;;;;4137625;28;20058;-59
2022/02/17 06:25:57;;;;;;;0.08;0.05;;;;;;;;;;4126949;28;20054;-60
2022/02/17 06:27:58;;;;;;;0.10;0.10;;;;;;;;;;4116370;28;20076;-60
2022/02/17 06:29:59;;;;;;;0.52;0.10;;;;;;;;;;4127673;28;20128;-59
2022/02/17 06:32:00;;;;;;;0.10;0.10;;;;;;;;;;4128575;28;20862;-61
2022/02/17 06:34:02;;;;;;;0.00;0.00;;;;;;;;;;4133148;28;20061;-61
2022/02/17 06:36:03;;;;;;;0.10;0.10;;;;;;;;;;4130989;28;20058;-61
2022/02/17 06:38:06;;;;;;;0.03;0.00;;;;;;;;;;4116667;28;20055;-60
2022/02/17 06:40:07;;;;;;;0.30;0.10;;;;;;;;;;4141879;28;20777;-61
2022/02/17 06:42:09;;;;;;;0.05;0.05;;;;;;;;;;4135687;28;20054;-60
2022/02/17 06:44:10;;;;;;;0.10;0.10;;;;;;;;;;4111550;28;20455;-61
2022/02/17 06:46:11;;;;;;;0.10;0.10;;;;;;;;;;4129998;28;20133;-61
2022/02/17 06:48:13;;;;;;;0.08;0.08;;;;;;;;;;4130137;28;20180;-61
2022/02/17 06:50:15;;;;;;;0.20;0.20;;;;;;;;;;4118730;28;20113;-61
2022/02/17 06:52:16;;;;;;;0.20;0.10;;;;;;;;;;4124637;28;20058;-61
2022/02/17 06:54:17;;;;;;;0.10;0.10;;;;;;;;;;4120966;28;20062;-61
2022/02/17 06:56:18;;;;;;;0.40;0.17;;;;;;;;;;4120321;28;20054;-60
2022/02/17 06:58:19;;;;;;;0.28;0.10;;;;;;;;;;4126860;28;20100;-61
2022/02/17 07:00:20;;;;;;;0.40;0.10;;;;;;;;;;4125978;28;20050;-61
2022/02/17 07:02:25;;;;;;;0.10;0.10;;;;;;;;;;4127457;28;20078;-61
2022/02/17 07:04:26;;;;;;;0.20;0.10;;;;;;;;;;4125850;28;20066;-59
2022/02/17 07:06:27;;;;;;;1.52;0.20;;;;;;;;;;4121461;28;20104;-61
2022/02/17 07:08:29;;;;;;;0.30;0.10;;;;;;;;;;4125306;28;20106;-59
2022/02/17 07:12:49;;;;;;;0.98;0.10;;;;;;;;;;4125377;28;20050;-61
2022/02/17 07:14:53;;;;;;;0.40;0.20;;;;;;;;;;4124845;28;20458;-60
2022/02/17 07:16:57;;;;;;;1.33;0.10;;;;;;;;;;4109602;28;20094;-61
2022/02/17 07:19:00;;;;;;;0.17;0.13;;;;;;;;;;4126064;28;20058;-62
2022/02/17 07:21:01;;;;;;;0.10;0.10;;;;;;;;;;4138168;28;20046;-61
2022/02/17 07:23:03;;;;;;;0.22;0.15;;;;;;;;;;4091301;28;20459;-61
2022/02/17 07:25:05;;;;;;;0.10;0.10;;;;;;;;;;4121373;28;20062;-61
2022/02/17 07:27:06;;;;;;;0.38;0.10;;;;;;;;;;4123815;28;20481;-61
2022/02/17 07:29:07;;;;;;;0.22;0.15;;;;;;;;;;4122200;28;20492;-60
2022/02/17 07:31:12;;;;;;;0.10;0.10;;;;;;;;;;4117834;28;20057;-61
2022/02/17 07:33:13;;;;;;;1.65;0.20;;;;;;;;;;4117446;28;20061;-59
2022/02/17 07:35:14;;;;;;;0.20;0.20;;;;;;;;;;4112912;28;20108;-60
2022/02/17 07:37:16;;;;;;;2.22;0.10;;;;;;;;;;4112232;28;20054;-61
2022/02/17 07:39:18;;;;;;;0.10;0.10;;;;;;;;;;4119499;28;20094;-63
2022/02/17 07:41:19;;;;;;;0.13;0.10;;;;;;;;;;4110883;28;20116;-61
2022/02/17 07:43:21;;;;;;;0.20;0.10;;;;;;;;;;4113750;28;20530;-61
2022/02/17 07:45:22;;;;;;;3.42;0.25;;;;;;;;;;4121374;28;20101;-60
2022/02/17 07:47:24;;;;;;;0.30;0.10;;;;;;;;;;4120672;28;20058;-61
2022/02/17 07:49:25;;;;;;;3.20;0.15;;;;;;;;;;4109639;28;20058;-56
2022/02/17 07:51:30;;;;;;;1.38;0.22;;;;;;;;;;4115725;28;20164;-57
2022/02/17 07:53:31;;;;;;;0.10;0.10;;;;;;;;;;4117206;28;20206;-57
2022/02/17 07:55:34;;;;;;;0.10;0.10;;;;;;;;;;4116225;28;20054;-59
2022/02/17 07:57:35;;;;;;;0.28;0.10;;;;;;;;;;4114118;28;20066;-57
2022/02/17 07:59:36;;;;;;;0.13;0.13;;;;;;;;;;4109370;28;20058;-55
2022/02/17 08:01:37;;;;;;;0.50;0.20;;;;;;;;;;4112436;28;20113;-56
2022/02/17 08:03:39;;;;;;;0.32;0.20;;;;;;;;;;4112719;28;20058;-57
2022/02/17 08:05:40;;;;;;;0.10;0.10;;;;;;;;;;4116326;28;20116;-50
2022/02/17 08:07:42;;;;;;;0.13;0.10;;;;;;;;;;4115346;28;20054;-58
2022/02/17 08:09:43;;;;;;;0.25;0.20;;;;;;;;;;4114543;28;20238;-59
2022/02/17 08:11:44;;;;;;;0.30;0.10;;;;;;;;;;4116783;28;20077;-59
2022/02/17 08:13:46;;;;;;;2.20;0.15;;;;;;;;;;4118459;28;20058;-56
2022/02/17 08:15:47;;;;;;;0.13;0.10;;;;;;;;;;4118948;28;20212;-59
2022/02/17 08:17:48;;;;;;;0.20;0.10;;;;;;;;;;4120077;28;20113;-58
2022/02/17 08:19:49;;;;;;;0.80;0.10;;;;;;;;;;4114882;28;20394;-57
2022/02/17 08:21:50;;;;;;;1.13;0.20;;;;;;;;;;4103181;28;20525;-55
2022/02/17 08:23:52;;;;;;;0.15;0.10;;;;;;;;;;4111845;28;20158;-52
2022/02/17 08:25:54;;;;;;;0.10;0.10;;;;;;;;;;4101129;28;20109;-53
2022/02/17 08:27:55;;;;;;;1.80;0.10;;;;;;;;;;4098614;28;20794;-56
2022/02/17 08:29:56;;;;;;;0.10;0.10;;;;;;;;;;4112967;28;20386;-53
2022/02/17 08:31:58;;;;;;;0.10;0.10;;;;;;;;;;4118550;28;20396;-54
2022/02/17 08:34:04;;;;;;;0.13;0.10;;;;;;;;;;4117097;28;20120;-55
2022/02/17 08:36:05;;;;;;;1.45;0.10;;;;;;;;;;4102896;28;20138;-56
2022/02/17 08:38:06;;;;;;;0.30;0.20;;;;;;;;;;4098047;28;20066;-59
2022/02/17 08:40:09;;;;;;;0.47;0.10;;;;;;;;;;4107203;28;20067;-57
2022/02/17 08:42:10;;;;;;;1.58;0.10;;;;;;;;;;4089019;28;20657;-57
2022/02/17 08:44:12;;;;;;;0.08;0.05;;;;;;;;;;4111825;28;20062;-53
2022/02/17 08:46:14;;;;;;;0.10;0.10;;;;;;;;;;4115790;28;20104;-57
2022/02/17 08:48:15;;;;;;;0.30;0.10;;;;;;;;;;4112765;28;20058;-51
2022/02/17 08:50:16;;;;;;;0.10;0.10;;;;;;;;;;4112391;28;20089;-55
2022/02/17 08:52:19;;;;;;;0.45;0.20;;;;;;;;;;4110773;28;20494;-54
2022/02/17 08:54:23;;;;;;;0.28;0.10;;;;;;;;;;4114778;28;20137;-50
2022/02/17 08:56:25;;;;;;;0.25;0.10;;;;;;;;;;4091839;28;20136;-56
2022/02/17 08:58:27;;;;;;;0.15;0.05;;;;;;;;;;4108964;28;20104;-51
2022/02/17 09:00:28;;;;;;;1.00;0.17;;;;;;;;;;4110923;28;20142;-52
2022/02/17 09:02:30;;;;;;;1.73;0.10;;;;;;;;;;4105731;28;20376;-54
2022/02/17 09:04:32;;;;;;;0.20;0.10;;;;;;;;;;4095454;28;20058;-56
2022/02/17 09:06:33;;;;;;;0.00;0.00;;;;;;;;;;4101300;28;20522;-55
2022/02/17 09:08:34;;;;;;;0.10;0.10;;;;;;;;;;4108823;28;20050;-55
2022/02/17 09:10:39;;;;;;;0.50;0.20;;;;;;;;;;4106286;28;20098;-57
2022/02/17 09:12:40;;;;;;;0.65;0.05;;;;;;;;;;4099236;28;20108;-55
2022/02/17 09:14:41;;;;;;;0.60;0.17;;;;;;;;;;4110142;28;20078;-55
2022/02/17 09:16:42;;;;;;;0.30;0.17;;;;;;;;;;4107008;28;20051;-57
2022/02/17 09:18:43;;;;;;;0.80;0.17;;;;;;;;;;4112198;28;20066;-57
2022/02/17 09:20:44;;;;;;;0.30;0.20;;;;;;;;;;4106101;28;20120;-52
2022/02/17 09:22:46;;;;;;;0.30;0.10;;;;;;;;;;4112270;28;20062;-58
2022/02/17 09:24:48;;;;;;;1.13;0.20;;;;;;;;;;4107478;28;20050;-51
2022/02/17 09:26:50;;;;;;;0.20;0.20;;;;;;;;;;4115785;28;20498;-57
2022/02/17 09:28:51;;;;;;;0.10;0.10;;;;;;;;;;4108670;28;20062;-55
2022/02/17 09:30:52;;;;;;;0.22;0.10;;;;;;;;;;4101671;28;20767;-56
2022/02/17 09:32:53;;;;;;;0.50;0.10;;;;;;;;;;4098365;28;20062;-51
2022/02/17 09:34:55;;;;;;;0.15;0.10;;;;;;;;;;4102072;28;20059;-56
2022/02/17 09:36:56;;;;;;;0.45;0.10;;;;;;;;;;4093257;28;20074;-55
2022/02/17 09:38:57;;;;;;;1.23;0.05;;;;;;;;;;4108333;28;20490;-53
2022/02/17 09:40:58;;;;;;;0.20;0.10;;;;;;;;;;4099219;28;20055;-53
2022/02/17 09:43:00;;;;;;;1.98;0.20;;;;;;;;;;4108084;28;20054;-55
2022/02/17 09:45:01;;;;;;;0.25;0.13;;;;;;;;;;4117611;28;20416;-53
2022/02/17 09:47:03;;;;;;;0.10;0.10;;;;;;;;;;4106914;28;20120;-53
2022/02/17 09:49:04;;;;;;;0.08;0.03;;;;;;;;;;4112863;28;20050;-55
2022/02/17 09:51:06;;;;;;;2.55;0.20;;;;;;;;;;4106372;28;20058;-56
2022/02/17 09:53:08;;;;;;;0.28;0.10;;;;;;;;;;4115500;28;20442;-53
2022/02/17 09:55:16;;;;;;;0.45;0.10;;;;;;;;;;4097641;28;20054;-59
2022/02/17 09:57:23;;;;;;;0.32;0.20;;;;;;;;;;4114370;28;20411;-57
2022/02/17 09:59:24;;;;;;;0.20;0.15;;;;;;;;;;4104897;28;20113;-54
2022/02/17 10:01:27;;;;;;;0.25;0.10;;;;;;;;;;4101783;28;20158;-56
2022/02/17 10:03:32;;;;;;;0.45;0.20;;;;;;;;;;4109486;28;20116;-56
2022/02/17 10:05:33;;;;;;;0.70;0.15;;;;;;;;;;4111948;28;20073;-54
2022/02/17 10:07:42;;;;;;;0.15;0.10;;;;;;;;;;4110358;28;20100;-55
2022/02/17 10:09:46;;;;;;;0.17;0.17;;;;;;;;;;4108535;28;20122;-56
2022/02/17 10:11:49;;;;;;;0.52;0.20;;;;;;;;;;4109696;28;20132;-51
2022/02/17 10:14:00;;;;;;;0.82;0.30;;;;;;;;;;4092685;28;20506;-54
2022/02/17 10:16:01;;;;;;;0.40;0.20;;;;;;;;;;4112716;28;20097;-54
2022/02/17 10:18:05;;;;;;;0.60;0.22;;;;;;;;;;4115773;28;20105;-51
2022/02/17 10:20:07;;;;;;;0.60;0.30;;;;;;;;;;4113836;28;20058;-51
2022/02/17 10:22:16;;;;;;;0.52;0.10;;;;;;;;;;4111715;28;20069;-57
2022/02/17 10:24:38;;;;;;;0.15;0.15;;;;;;;;;;4107034;28;20125;-54
2022/02/17 10:26:39;;;;;;;0.73;0.32;;;;;;;;;;4102164;28;20108;-55
2022/02/17 10:28:59;;;;;;;0.35;0.20;;;;;;;;;;4115919;28;20054;-54
2022/02/17 10:31:00;;;;;;;0.10;0.10;;;;;;;;;;4107304;28;20117;-56
2022/02/17 10:33:07;;;;;;;0.10;0.10;;;;;;;;;;4110590;28;20054;-53
2022/02/17 10:35:18;;;;;;;0.68;0.10;;;;;;;;;;4099458;28;20067;-52
2022/02/17 10:37:43;;;;;;;1.00;0.10;;;;;;;;;;4092098;28;20123;-56
2022/02/17 10:39:44;;;;;;;0.90;0.30;;;;;;;;;;4101298;28;20077;-57
2022/02/17 10:41:50;;;;;;;0.75;0.20;;;;;;;;;;4116703;28;20111;-55
2022/02/17 10:44:06;;;;;;;0.50;0.20;;;;;;;;;;4111938;28;20186;-54
2022/02/17 10:46:10;;;;;;;0.30;0.20;;;;;;;;;;4113465;28;20136;-56
2022/02/17 10:48:12;;;;;;;0.40;0.40;;;;;;;;;;4096105;28;20058;-53
2022/02/17 10:50:18;;;;;;;0.10;0.10;;;;;;;;;;4103420;28;20073;-54
2022/02/17 10:52:39;;;;;;;0.10;0.10;;;;;;;;;;4113453;28;20564;-51
2022/02/17 10:54:40;;;;;;;0.47;0.10;;;;;;;;;;4114379;28;20050;-55
2022/02/17 10:56:46;;;;;;;0.65;0.30;;;;;;;;;;4095312;28;20474;-54
2022/02/17 10:58:48;;;;;;;0.17;0.10;;;;;;;;;;4115594;28;20113;-54
2022/02/17 11:00:49;;;;;;;0.20;0.20;;;;;;;;;;4107576;28;20730;-57
2022/02/17 11:02:51;;;;;;;0.60;0.50;;;;;;;;;;4096294;28;20243;-55
2022/02/17 11:04:53;;;;;;;0.32;0.28;;;;;;;;;;4108136;28;20132;-55
2022/02/17 11:06:54;;;;;;;2.42;0.30;;;;;;;;;;4116398;28;20065;-56
2022/02/17 11:08:55;;;;;;;2.35;0.40;;;;;;;;;;4104622;28;20058;-56
2022/02/17 11:10:56;;;;;;;1.10;0.43;;;;;;;;;;4112177;28;20129;-54
2022/02/17 11:12:58;;;;;;;0.50;0.30;;;;;;;;;;4108123;28;20104;-54
2022/02/17 11:15:00;;;;;;;0.95;0.20;;;;;;;;;;4119171;28;20469;-56
2022/02/17 11:17:01;;;;;;;1.50;0.55;;;;;;;;;;4118293;28;20460;-54
2022/02/17 11:19:02;;;;;;;0.47;0.30;;;;;;;;;;4096662;28;20050;-55
2022/02/17 11:21:03;;;;;;;1.80;0.55;;;;;;;;;;4103877;28;20071;-51
2022/02/17 11:23:05;;;;;;;1.50;0.30;;;;;;;;;;4117174;28;20058;-54
2022/02/17 11:25:06;;;;;;;0.60;0.30;;;;;;;;;;4116568;28;20058;-52
2022/02/17 11:27:07;;;;;;;1.75;0.40;;;;;;;;;;4117146;28;20342;-51
2022/02/17 11:29:27;;;;;;;1.45;0.55;;;;;;;;;;4116650;28;21684;-54
2022/02/17 11:31:29;;;;;;;1.27;0.32;;;;;;;;;;4115728;28;20268;-49
2022/02/17 11:33:36;;;;;;;0.93;0.50;;;;;;;;;;4113729;28;20494;-49
2022/02/17 11:35:37;;;;;;;1.33;0.50;;;;;;;;;;4107136;28;20533;-52
2022/02/17 11:37:44;;;;;;;0.73;0.40;;;;;;;;;;4110540;28;20116;-53
2022/02/17 11:40:03;;;;;;;0.50;0.40;;;;;;;;;;4110832;28;20690;-52
2022/02/17 11:42:05;;;;;;;0.80;0.30;;;;;;;;;;4112995;28;20462;-50
2022/02/17 11:44:13;;;;;;;0.43;0.30;;;;;;;;;;4102435;28;20146;-48
2022/02/17 11:46:16;;;;;;;0.50;0.20;;;;;;;;;;4111956;28;20097;-55
2022/02/17 11:48:41;;;;;;;0.30;0.20;;;;;;;;;;4118776;28;20549;-52
2022/02/17 11:50:45;;;;;;;0.52;0.20;;;;;;;;;;4112385;28;20057;-55
2022/02/17 11:53:22;;;;;;;0.47;0.25;;;;;;;;;;4113938;28;20065;-55
2022/02/17 11:55:23;;;;;;;0.52;0.35;;;;;;;;;;4118400;28;20100;-50
2022/02/17 11:57:35;;;;;;;0.75;0.30;;;;;;;;;;4112626;28;20087;-53
2022/02/17 11:59:36;;;;;;;0.95;0.30;;;;;;;;;;4111943;28;20058;-55
2022/02/17 12:01:38;;;;;;;0.30;0.20;;;;;;;;;;4109011;28;20860;-52
2022/02/17 12:04:04;;;;;;;0.68;0.32;;;;;;;;;;4103574;28;20421;-55
2022/02/17 12:06:46;;;;;;;0.40;0.28;;;;;;;;;;4095402;28;20054;-50
2022/02/17 12:08:54;;;;;;;0.25;0.22;;;;;;;;;;4114039;28;20436;-51
2022/02/17 12:11:37;;;;;;;0.50;0.28;;;;;;;;;;4116278;28;21150;-52
2022/02/17 12:13:38;;;;;;;0.47;0.20;;;;;;;;;;4120298;28;20065;-54
2022/02/17 12:15:45;;;;;;;0.60;0.30;;;;;;;;;;4114984;28;20424;-53
2022/02/17 12:17:46;;;;;;;0.55;0.40;;;;;;;;;;4118189;28;20416;-50
2022/02/17 12:19:47;;;;;;;2.92;0.30;;;;;;;;;;4101671;28;20605;-53
2022/02/17 12:21:49;;;;;;;0.63;0.30;;;;;;;;;;4113658;28;20537;-55
2022/02/17 12:23:50;;;;;;;0.65;0.20;;;;;;;;;;4121199;28;20061;-54
2022/02/17 12:25:52;;;;;;;0.17;0.15;;;;;;;;;;4115970;28;20363;-54
2022/02/17 12:28:07;;;;;;;1.13;0.40;;;;;;;;;;4110359;28;20055;-54